Skip Navigation Links
NOAA logo - Click to go to the NOAA homepage
NOAA's National Weather Service
Alaska Aviation Weather Unit
  NWS logo - Click to go to the NWS homepage
Left Navbar Graphic     15 AKDT = 23 GMT

   
NOAA is celebrating 200 years of science, service, and stewardship. Visit the NOAA 200th celebration Web site to learn more.
USA.gov is the U.S. Government's official Web portal to all Federal, state and local government Web resources and services.
Facebook
NWS on Facebook

Important Change Regarding the AAWU Web Presence

 

Over the last several months, the AAWU has been working to navigate its webpages to a nationally supported server. Security, as well as other needs, have necessitated the change.  We have been given an extension for the site changeover while we diligently work at addressing feedback received. As of July 14, 2017, aawu.arh.noaa.gov will be discontinued. The new AAWU web address is weather.gov/aawu. It is now live and will run in-parallel with the old site until it is discontinued on July 14, 2017. Please continue to send any feedback or questions regarding the new webpages to nws.ar.aawu.webauthors@noaa.gov.  Thank you for your patience during this time of transition.
AAWU Home :: Display TAF Add Bookmark
METAR PAVC 191756Z AUTO 28004KT 10SM BKN039 03/M03 A2978 RMK AO2
 RAE06 SLP089 P0000 60000 T00281033 10039 20022 56012=

METAR PAVC 191856Z AUTO 26011KT 10SM CLR 04/M04 A2974 RMK AO2 SLP078
 T00391039=

METAR PAVC 191956Z AUTO 29008G18KT 10SM BKN035 OVC042 03/M02 A2973
 RMK AO2 RAB31E48UPB48E51 SLP073 P0000 T00331022=

METAR PAVC 192056Z AUTO 01007G14KT 10SM OVC035 04/M03 A2971 RMK AO2
 SLP067 60000 T00441028 56022=

METAR PAVC 192156Z AUTO 26008KT 10SM SCT047 04/M03 A2969 RMK AO2
 SLP059 T00391033=

METAR PAVC 192256Z AUTO 31007KT 10SM CLR 05/M04 A2964 RMK AO2 SLP044
 T00501044=


NOAA's National Weather Service
Alaska Aviation Weather Unit
6930 Sand Lake Road
Anchorage, AK 99502-1845
Disclaimer
Credits
Glossary
Privacy Policy
About Us
Career Opportunities
Contact AAWU Internet Services Site last modified: April, 17th 2012